This is the latest recevied weather packets stored in our database for station/object AC4AG. If no packets are shown the sender has not sent any weather packets the latest 1 day(s).
| Time | Temp. | Humidity | Pressure | Rain* | Wind** | Luminosity | Snow |
|---|---|---|---|---|---|---|---|
| 1778011877 | 20° C | 60% | 1009.9 hPa | 0 mm | 1.34 m/s, 180° | 88 W/m² | - |
| 1778011575 | 20° C | 58% | 1009.7 hPa | 0 mm | 4.02 m/s, 203° | 121 W/m² | - |
| 1778011271 | 20° C | 59% | 1009.8 hPa | 0 mm | 2.24 m/s, 201° | 126 W/m² | - |
| 1778010968 | 20° C | 59% | 1009.6 hPa | 0 mm | 2.68 m/s, 201° | 148 W/m² | - |
| 1778010665 | 20° C | 59% | 1009.9 hPa | 0 mm | 2.24 m/s, 198° | 126 W/m² | - |
| 1778010362 | 20° C | 59% | 1010.3 hPa | 0 mm | 3.58 m/s, 228° | 90 W/m² | - |
| 1778010058 | 20.56° C | 59% | 1010.3 hPa | 0 mm | 2.24 m/s, 184° | 114 W/m² | - |
| 1778009755 | 20.56° C | 60% | 1010.4 hPa | 0 mm | 1.79 m/s, 248° | 216 W/m² | - |
| 1778009452 | 20.56° C | 60% | 1010.5 hPa | 0 mm | 1.34 m/s, 160° | 223 W/m² | - |
| 1778009151 | 20.56° C | 59% | 1010.5 hPa | 0 mm | 4.02 m/s, 192° | 234 W/m² | - |
| 1778008848 | 20.56° C | 58% | 1010.7 hPa | 0 mm | 3.58 m/s, 211° | 200 W/m² | - |
| 1778008546 | 20.56° C | 58% | 1010.7 hPa | 0 mm | 3.13 m/s, 209° | 181 W/m² | - |
| 1778008243 | 20.56° C | 58% | 1010.6 hPa | 0 mm | 4.02 m/s, 210° | 213 W/m² | - |
| 1778007938 | 20.56° C | 59% | 1010.5 hPa | 0 mm | 1.34 m/s, 216° | 205 W/m² | - |
| 1778007634 | 20.56° C | 58% | 1010.6 hPa | 0 mm | 1.79 m/s, 191° | 226 W/m² | - |
| 1778007331 | 20.56° C | 59% | 1011 hPa | 0 mm | 0.89 m/s, 192° | 233 W/m² | - |
| 1778007027 | 20° C | 58% | 1011.2 hPa | 0 mm | 2.24 m/s, 192° | 233 W/m² | - |
| 1778006724 | 20° C | 58% | 1011.2 hPa | 0 mm | 3.13 m/s, 190° | 206 W/m² | - |
| 1778006421 | 20.56° C | 58% | 1011.2 hPa | 0 mm | 2.24 m/s, 151° | 241 W/m² | - |
| 1778006118 | 20.56° C | 59% | 1010.9 hPa | 0 mm | 2.24 m/s, 200° | 262 W/m² | - |
| 1778005815 | 20.56° C | 58% | 1011.1 hPa | 0 mm | 3.58 m/s, 188° | 254 W/m² | - |
| 1778005512 | 20.56° C | 58% | 1011.1 hPa | 0 mm | 3.13 m/s, 220° | 266 W/m² | - |
| 1778005208 | 20.56° C | 57% | 1011.2 hPa | 0 mm | 4.47 m/s, 227° | 305 W/m² | - |
| 1778004905 | 20.56° C | 60% | 1011.1 hPa | 0 mm | 1.79 m/s, 155° | 439 W/m² | - |
| 1778004602 | 20.56° C | 57% | 1011.1 hPa | 0 mm | 4.92 m/s, 218° | 356 W/m² | - |
* Rain latest hour (hover to see other rain measurements)
** Current wind speed in m/s (hover to see current wind gust speed)